sensor_id;sensor_type;location;lat;lon;timestamp;pressure;altitude;pressure_sealevel;temperature;humidity
26192;BME280;13935;55.672;37.764;2023-03-15T00:00:24;99473.13;;;5.69;70.34
26192;BME280;13935;55.672;37.764;2023-03-15T00:01:30;99471.97;;;5.70;69.98
26192;BME280;13935;55.672;37.764;2023-03-15T00:02:35;99479.72;;;5.65;71.16
26192;BME280;13935;55.672;37.764;2023-03-15T00:03:42;99480.59;;;5.69;70.47
26192;BME280;13935;55.672;37.764;2023-03-15T00:04:45;99478.94;;;5.64;70.96
26192;BME280;13935;55.672;37.764;2023-03-15T00:05:49;99483.63;;;5.64;71.51
26192;BME280;13935;55.672;37.764;2023-03-15T00:06:55;99473.00;;;5.63;71.24
26192;BME280;13935;55.672;37.764;2023-03-15T00:07:59;99480.81;;;5.61;72.16
26192;BME280;13935;55.672;37.764;2023-03-15T00:09:04;99472.38;;;5.50;71.93
26192;BME280;13935;55.672;37.764;2023-03-15T00:10:09;99477.94;;;5.54;72.11
26192;BME280;13935;55.672;37.764;2023-03-15T00:11:15;99480.69;;;5.54;72.40
26192;BME280;13935;55.672;37.764;2023-03-15T00:12:21;99473.97;;;5.51;72.52
26192;BME280;13935;55.672;37.764;2023-03-15T00:13:27;99478.72;;;5.54;72.88
26192;BME280;13935;55.672;37.764;2023-03-15T00:14:32;99469.72;;;5.54;73.22
26192;BME280;13935;55.672;37.764;2023-03-15T00:15:47;99475.19;;;5.54;72.92
26192;BME280;13935;55.672;37.764;2023-03-15T00:16:51;99473.22;;;5.54;72.72
26192;BME280;13935;55.672;37.764;2023-03-15T00:17:58;99481.84;;;5.53;72.98
26192;BME280;13935;55.672;37.764;2023-03-15T00:19:04;99484.88;;;5.48;72.85
26192;BME280;13935;55.672;37.764;2023-03-15T00:20:14;99493.25;;;5.55;73.23
26192;BME280;13935;55.672;37.764;2023-03-15T00:21:26;99477.19;;;5.57;72.96
26192;BME280;13935;55.672;37.764;2023-03-15T00:22:32;99477.25;;;5.60;73.26
26192;BME280;13935;55.672;37.764;2023-03-15T00:23:35;99475.59;;;5.56;73.48
26192;BME280;13935;55.672;37.764;2023-03-15T00:24:39;99478.06;;;5.61;73.50
26192;BME280;13935;55.672;37.764;2023-03-15T00:25:46;99468.97;;;5.57;73.47
26192;BME280;13935;55.672;37.764;2023-03-15T00:26:50;99474.81;;;5.55;74.39
26192;BME280;13935;55.672;37.764;2023-03-15T00:27:54;99476.56;;;5.63;74.23
26192;BME280;13935;55.672;37.764;2023-03-15T00:29:03;99472.88;;;5.56;74.26
26192;BME280;13935;55.672;37.764;2023-03-15T00:30:10;99474.16;;;5.62;74.21
26192;BME280;13935;55.672;37.764;2023-03-15T00:31:17;99471.72;;;5.57;74.23
26192;BME280;13935;55.672;37.764;2023-03-15T00:32:25;99485.13;;;5.62;74.05
26192;BME280;13935;55.672;37.764;2023-03-15T00:33:29;99475.69;;;5.59;75.12
26192;BME280;13935;55.672;37.764;2023-03-15T00:34:36;99480.81;;;5.61;75.25
26192;BME280;13935;55.672;37.764;2023-03-15T00:35:44;99483.06;;;5.55;75.56
26192;BME280;13935;55.672;37.764;2023-03-15T00:36:49;99473.16;;;5.51;75.19
26192;BME280;13935;55.672;37.764;2023-03-15T00:37:58;99475.97;;;5.54;75.44
26192;BME280;13935;55.672;37.764;2023-03-15T00:39:04;99475.50;;;5.49;75.63
26192;BME280;13935;55.672;37.764;2023-03-15T00:40:09;99474.03;;;5.55;75.64
26192;BME280;13935;55.672;37.764;2023-03-15T00:41:16;99472.88;;;5.56;76.22
26192;BME280;13935;55.672;37.764;2023-03-15T00:42:20;99472.44;;;5.54;76.60
26192;BME280;13935;55.672;37.764;2023-03-15T00:43:23;99481.41;;;5.51;76.78
26192;BME280;13935;55.672;37.764;2023-03-15T00:44:25;99481.03;;;5.52;76.88
26192;BME280;13935;55.672;37.764;2023-03-15T00:45:30;99468.50;;;5.51;76.99
26192;BME280;13935;55.672;37.764;2023-03-15T00:46:32;99478.59;;;5.47;77.68
26192;BME280;13935;55.672;37.764;2023-03-15T00:47:35;99476.78;;;5.55;77.18
26192;BME280;13935;55.672;37.764;2023-03-15T00:48:37;99476.34;;;5.53;77.29
26192;BME280;13935;55.672;37.764;2023-03-15T00:49:41;99473.47;;;5.46;77.97
26192;BME280;13935;55.672;37.764;2023-03-15T00:50:44;99475.44;;;5.45;78.08
26192;BME280;13935;55.672;37.764;2023-03-15T00:51:46;99479.81;;;5.50;77.64
26192;BME280;13935;55.672;37.764;2023-03-15T00:52:50;99473.84;;;5.44;78.15
26192;BME280;13935;55.672;37.764;2023-03-15T00:54:02;99481.69;;;5.46;78.52
26192;BME280;13935;55.672;37.764;2023-03-15T00:55:12;99477.81;;;5.47;78.69
26192;BME280;13935;55.672;37.764;2023-03-15T00:56:25;99473.09;;;5.47;78.68
26192;BME280;13935;55.672;37.764;2023-03-15T00:57:31;99475.84;;;5.47;79.14
26192;BME280;13935;55.672;37.764;2023-03-15T00:58:36;99480.97;;;5.49;79.05
26192;BME280;13935;55.672;37.764;2023-03-15T00:59:39;99476.66;;;5.48;79.12
26192;BME280;13935;55.672;37.764;2023-03-15T01:00:42;99481.69;;;5.46;79.79
26192;BME280;13935;55.672;37.764;2023-03-15T01:01:44;99473.91;;;5.48;79.37
26192;BME280;13935;55.672;37.764;2023-03-15T01:02:49;99467.13;;;5.42;79.40
26192;BME280;13935;55.672;37.764;2023-03-15T01:03:54;99475.00;;;5.43;79.67
26192;BME280;13935;55.672;37.764;2023-03-15T01:04:58;99474.31;;;5.50;80.08
26192;BME280;13935;55.672;37.764;2023-03-15T01:06:07;99474.69;;;5.48;79.94
26192;BME280;13935;55.672;37.764;2023-03-15T01:07:11;99476.34;;;5.53;79.80
26192;BME280;13935;55.672;37.764;2023-03-15T01:08:13;99472.69;;;5.45;80.33
26192;BME280;13935;55.672;37.764;2023-03-15T01:09:17;99476.50;;;5.41;80.90
26192;BME280;13935;55.672;37.764;2023-03-15T01:10:21;99476.13;;;5.42;81.22
26192;BME280;13935;55.672;37.764;2023-03-15T01:11:26;99481.69;;;5.46;81.23
26192;BME280;13935;55.672;37.764;2023-03-15T01:12:33;99480.53;;;5.47;80.88
26192;BME280;13935;55.672;37.764;2023-03-15T01:13:42;99463.41;;;5.53;81.34
26192;BME280;13935;55.672;37.764;2023-03-15T01:14:49;99468.41;;;5.48;81.19
26192;BME280;13935;55.672;37.764;2023-03-15T01:15:51;99483.34;;;5.50;81.56
26192;BME280;13935;55.672;37.764;2023-03-15T01:16:57;99471.88;;;5.45;81.84
26192;BME280;13935;55.672;37.764;2023-03-15T01:17:59;99466.03;;;5.46;81.85
26192;BME280;13935;55.672;37.764;2023-03-15T01:19:03;99478.94;;;5.46;82.08
26192;BME280;13935;55.672;37.764;2023-03-15T01:20:06;99464.03;;;5.43;82.96
26192;BME280;13935;55.672;37.764;2023-03-15T01:21:14;99467.47;;;5.40;83.04
26192;BME280;13935;55.672;37.764;2023-03-15T01:22:19;99469.00;;;5.38;83.35
26192;BME280;13935;55.672;37.764;2023-03-15T01:23:22;99470.22;;;5.40;83.53
26192;BME280;13935;55.672;37.764;2023-03-15T01:24:26;99470.94;;;5.37;84.25
26192;BME280;13935;55.672;37.764;2023-03-15T01:25:31;99477.16;;;5.34;84.96
26192;BME280;13935;55.672;37.764;2023-03-15T01:26:38;99489.22;;;5.30;85.43
26192;BME280;13935;55.672;37.764;2023-03-15T01:27:41;99471.31;;;5.36;84.83
26192;BME280;13935;55.672;37.764;2023-03-15T01:28:55;99470.16;;;5.37;84.65
26192;BME280;13935;55.672;37.764;2023-03-15T01:29:59;99472.88;;;5.37;84.98
26192;BME280;13935;55.672;37.764;2023-03-15T01:31:05;99483.00;;;5.33;85.87
26192;BME280;13935;55.672;37.764;2023-03-15T01:32:08;99477.44;;;5.29;85.89
26192;BME280;13935;55.672;37.764;2023-03-15T01:33:11;99468.84;;;5.31;85.92
26192;BME280;13935;55.672;37.764;2023-03-15T01:34:18;99465.69;;;5.29;86.66
26192;BME280;13935;55.672;37.764;2023-03-15T01:35:32;99475.84;;;5.28;86.73
26192;BME280;13935;55.672;37.764;2023-03-15T01:36:35;99471.97;;;5.29;86.90
26192;BME280;13935;55.672;37.764;2023-03-15T01:37:40;99464.97;;;5.32;87.14
26192;BME280;13935;55.672;37.764;2023-03-15T01:38:53;99467.28;;;5.30;87.58
26192;BME280;13935;55.672;37.764;2023-03-15T01:40:10;99466.53;;;5.33;87.44
26192;BME280;13935;55.672;37.764;2023-03-15T01:41:13;99465.69;;;5.29;87.54
26192;BME280;13935;55.672;37.764;2023-03-15T01:42:18;99453.06;;;5.24;88.34
26192;BME280;13935;55.672;37.764;2023-03-15T01:43:27;99456.19;;;5.23;88.62
26192;BME280;13935;55.672;37.764;2023-03-15T01:47:11;99467.16;;;5.23;89.14
26192;BME280;13935;55.672;37.764;2023-03-15T01:48:15;99475.72;;;5.21;89.38
26192;BME280;13935;55.672;37.764;2023-03-15T01:49:27;99465.25;;;5.27;89.50
26192;BME280;13935;55.672;37.764;2023-03-15T01:50:33;99464.81;;;5.25;90.26
26192;BME280;13935;55.672;37.764;2023-03-15T01:52:55;99463.25;;;5.24;90.15
26192;BME280;13935;55.672;37.764;2023-03-15T01:54:26;99464.81;;;5.25;90.00
26192;BME280;13935;55.672;37.764;2023-03-15T01:55:28;99464.19;;;5.31;89.60
26192;BME280;13935;55.672;37.764;2023-03-15T01:56:50;99462.22;;;5.32;89.99
26192;BME280;13935;55.672;37.764;2023-03-15T01:57:57;99465.56;;;5.22;90.28
26192;BME280;13935;55.672;37.764;2023-03-15T01:59:07;99473.03;;;5.25;90.54
26192;BME280;13935;55.672;37.764;2023-03-15T02:00:17;99473.91;;;5.29;90.63
26192;BME280;13935;55.672;37.764;2023-03-15T02:01:32;99464.81;;;5.25;91.25
26192;BME280;13935;55.672;37.764;2023-03-15T02:02:48;99470.59;;;5.20;91.58
26192;BME280;13935;55.672;37.764;2023-03-15T02:04:02;99472.69;;;5.26;91.07
26192;BME280;13935;55.672;37.764;2023-03-15T02:05:10;99476.97;;;5.24;91.77
26192;BME280;13935;55.672;37.764;2023-03-15T02:06:20;99472.78;;;5.30;91.51
26192;BME280;13935;55.672;37.764;2023-03-15T02:07:30;99461.81;;;5.30;91.06
26192;BME280;13935;55.672;37.764;2023-03-15T02:08:42;99484.22;;;5.35;90.89
26192;BME280;13935;55.672;37.764;2023-03-15T02:09:59;99469.72;;;5.35;90.85
26192;BME280;13935;55.672;37.764;2023-03-15T02:11:06;99472.63;;;5.42;91.08
26192;BME280;13935;55.672;37.764;2023-03-15T02:12:10;99470.59;;;5.39;90.94
26192;BME280;13935;55.672;37.764;2023-03-15T02:13:16;99479.97;;;5.38;90.91
26192;BME280;13935;55.672;37.764;2023-03-15T02:14:28;99474.63;;;5.45;90.18
26192;BME280;13935;55.672;37.764;2023-03-15T02:15:37;99483.16;;;5.40;90.47
26192;BME280;13935;55.672;37.764;2023-03-15T02:16:41;99472.31;;;5.47;91.24
26192;BME280;13935;55.672;37.764;2023-03-15T02:17:49;99475.75;;;5.44;90.40
26192;BME280;13935;55.672;37.764;2023-03-15T02:18:54;99482.13;;;5.48;90.29
26192;BME280;13935;55.672;37.764;2023-03-15T02:21:24;99484.88;;;5.48;90.46
26192;BME280;13935;55.672;37.764;2023-03-15T02:27:04;99482.19;;;5.51;89.82
26192;BME280;13935;55.672;37.764;2023-03-15T02:28:10;99483.50;;;5.57;90.64
26192;BME280;13935;55.672;37.764;2023-03-15T02:29:18;99487.47;;;5.60;90.37
26192;BME280;13935;55.672;37.764;2023-03-15T02:30:25;99483.50;;;5.57;89.76
26192;BME280;13935;55.672;37.764;2023-03-15T02:31:31;99484.28;;;5.58;89.59
26192;BME280;13935;55.672;37.764;2023-03-15T02:32:39;99488.03;;;5.50;89.79
26192;BME280;13935;55.672;37.764;2023-03-15T02:33:46;99483.13;;;5.59;90.11
26192;BME280;13935;55.672;37.764;2023-03-15T02:34:51;99488.31;;;5.63;89.91
26192;BME280;13935;55.672;37.764;2023-03-15T02:36:26;99480.88;;;5.64;89.57
26192;BME280;13935;55.672;37.764;2023-03-15T02:37:32;99490.34;;;5.66;89.42
26192;BME280;13935;55.672;37.764;2023-03-15T02:38:40;99480.31;;;5.55;89.90
26192;BME280;13935;55.672;37.764;2023-03-15T02:39:46;99483.97;;;5.63;90.03
26192;BME280;13935;55.672;37.764;2023-03-15T02:40:50;99484.72;;;5.60;89.80
26192;BME280;13935;55.672;37.764;2023-03-15T02:41:58;99485.56;;;5.63;89.95
26192;BME280;13935;55.672;37.764;2023-03-15T02:43:10;99485.19;;;5.65;89.67
26192;BME280;13935;55.672;37.764;2023-03-15T02:44:35;99477.34;;;5.63;89.81
26192;BME280;13935;55.672;37.764;2023-03-15T02:45:39;99467.22;;;5.67;90.41
26192;BME280;13935;55.672;37.764;2023-03-15T02:46:48;99489.16;;;5.67;90.32
26192;BME280;13935;55.672;37.764;2023-03-15T02:47:55;99479.00;;;5.68;89.61
26192;BME280;13935;55.672;37.764;2023-03-15T02:49:01;99486.00;;;5.65;89.99
26192;BME280;13935;55.672;37.764;2023-03-15T02:50:06;99472.69;;;5.67;89.56
26192;BME280;13935;55.672;37.764;2023-03-15T02:51:23;99486.06;;;5.69;89.28
26192;BME280;13935;55.672;37.764;2023-03-15T02:52:28;99479.00;;;5.68;89.35
26192;BME280;13935;55.672;37.764;2023-03-15T02:53:35;99484.41;;;5.64;89.10
26192;BME280;13935;55.672;37.764;2023-03-15T02:54:39;99471.13;;;5.66;89.34
26192;BME280;13935;55.672;37.764;2023-03-15T02:55:48;99477.41;;;5.67;89.81
26192;BME280;13935;55.672;37.764;2023-03-15T02:56:53;99496.22;;;5.68;89.72
26192;BME280;13935;55.672;37.764;2023-03-15T02:58:00;99486.72;;;5.63;89.92
26192;BME280;13935;55.672;37.764;2023-03-15T02:59:03;99486.06;;;5.69;90.45
26192;BME280;13935;55.672;37.764;2023-03-15T03:00:07;99493.78;;;5.63;89.93
26192;BME280;13935;55.672;37.764;2023-03-15T03:01:19;99493.09;;;5.66;89.92
26192;BME280;13935;55.672;37.764;2023-03-15T03:02:21;99487.47;;;5.60;89.47
26192;BME280;13935;55.672;37.764;2023-03-15T03:03:27;99489.91;;;5.64;89.56
26192;BME280;13935;55.672;37.764;2023-03-15T03:04:29;99476.63;;;5.66;90.54
26192;BME280;13935;55.672;37.764;2023-03-15T03:05:36;99496.91;;;5.62;90.41
26192;BME280;13935;55.672;37.764;2023-03-15T03:06:51;99486.00;;;5.65;90.17
26192;BME280;13935;55.672;37.764;2023-03-15T03:07:58;99497.81;;;5.69;89.88
26192;BME280;13935;55.672;37.764;2023-03-15T03:09:05;99492.19;;;5.63;90.27
26192;BME280;13935;55.672;37.764;2023-03-15T03:10:10;99496.84;;;5.59;89.73
26192;BME280;13935;55.672;37.764;2023-03-15T03:11:24;99503.91;;;5.60;90.42
26192;BME280;13935;55.672;37.764;2023-03-15T03:12:31;99497.28;;;5.61;89.66
26192;BME280;13935;55.672;37.764;2023-03-15T03:13:35;99490.59;;;5.62;89.82
26192;BME280;13935;55.672;37.764;2023-03-15T03:14:41;99496.00;;;5.55;89.81
26192;BME280;13935;55.672;37.764;2023-03-15T03:15:50;99503.91;;;5.60;90.42
26192;BME280;13935;55.672;37.764;2023-03-15T03:17:04;99493.78;;;5.63;89.85
26192;BME280;13935;55.672;37.764;2023-03-15T03:18:08;99494.16;;;5.62;90.01
26192;BME280;13935;55.672;37.764;2023-03-15T03:19:20;99494.59;;;5.64;89.60
26192;BME280;13935;55.672;37.764;2023-03-15T03:20:29;99492.13;;;5.59;89.77
26192;BME280;13935;55.672;37.764;2023-03-15T03:21:31;99492.88;;;5.56;90.05
26192;BME280;13935;55.672;37.764;2023-03-15T03:22:39;99496.69;;;5.52;90.25
26192;BME280;13935;55.672;37.764;2023-03-15T03:23:43;99490.53;;;5.58;90.32
26192;BME280;13935;55.672;37.764;2023-03-15T03:24:52;99494.81;;;5.56;90.62
26192;BME280;13935;55.672;37.764;2023-03-15T03:25:55;99490.78;;;5.50;90.85
26192;BME280;13935;55.672;37.764;2023-03-15T03:27:01;99493.97;;;5.52;90.82
26192;BME280;13935;55.672;37.764;2023-03-15T03:28:06;99499.88;;;5.54;90.93
26192;BME280;13935;55.672;37.764;2023-03-15T03:29:11;99507.97;;;5.47;91.16
26192;BME280;13935;55.672;37.764;2023-03-15T03:30:15;99492.81;;;5.53;91.25
26192;BME280;13935;55.672;37.764;2023-03-15T03:31:29;99499.88;;;5.54;91.28
26192;BME280;13935;55.672;37.764;2023-03-15T03:32:40;99484.00;;;5.44;91.31
26192;BME280;13935;55.672;37.764;2023-03-15T03:33:47;99495.84;;;5.48;90.81
26192;BME280;13935;55.672;37.764;2023-03-15T03:34:51;99491.97;;;5.49;91.09
26192;BME280;13935;55.672;37.764;2023-03-15T03:36:01;99495.41;;;5.46;91.54
26192;BME280;13935;55.672;37.764;2023-03-15T03:37:08;99483.16;;;5.40;91.69
26192;BME280;13935;55.672;37.764;2023-03-15T03:38:26;99487.03;;;5.39;92.16
26192;BME280;13935;55.672;37.764;2023-03-15T03:39:33;99494.25;;;5.47;92.27
26192;BME280;13935;55.672;37.764;2023-03-15T03:40:37;99491.75;;;5.38;93.22
26192;BME280;13935;55.672;37.764;2023-03-15T03:41:41;99483.84;;;5.37;92.68
26192;BME280;13935;55.672;37.764;2023-03-15T03:42:45;99490.78;;;5.31;92.71
26192;BME280;13935;55.672;37.764;2023-03-15T03:44:11;99494.88;;;5.40;92.14
26192;BME280;13935;55.672;37.764;2023-03-15T03:45:17;99494.41;;;5.35;92.27
26192;BME280;13935;55.672;37.764;2023-03-15T03:46:22;99490.16;;;5.37;92.59
26192;BME280;13935;55.672;37.764;2023-03-15T03:47:26;99501.13;;;5.37;92.45
26192;BME280;13935;55.672;37.764;2023-03-15T03:48:31;99498.75;;;5.36;92.21
26192;BME280;13935;55.672;37.764;2023-03-15T03:49:38;99490.16;;;5.37;92.45
26192;BME280;13935;55.672;37.764;2023-03-15T03:50:41;99493.53;;;5.31;92.64
26192;BME280;13935;55.672;37.764;2023-03-15T03:51:43;99499.81;;;5.31;92.08
26192;BME280;13935;55.672;37.764;2023-03-15T03:52:45;99495.41;;;5.27;92.71
26192;BME280;13935;55.672;37.764;2023-03-15T03:53:54;99498.31;;;5.34;92.84
26192;BME280;13935;55.672;37.764;2023-03-15T03:54:56;99502.97;;;5.33;92.65
26192;BME280;13935;55.672;37.764;2023-03-15T03:55:59;99496.19;;;5.27;92.99
26192;BME280;13935;55.672;37.764;2023-03-15T03:57:05;99500.03;;;5.23;93.54
26192;BME280;13935;55.672;37.764;2023-03-15T03:58:09;99502.50;;;5.28;93.25
26192;BME280;13935;55.672;37.764;2023-03-15T03:59:17;99497.00;;;5.28;93.38
26192;BME280;13935;55.672;37.764;2023-03-15T04:00:30;99504.78;;;5.26;93.58
26192;BME280;13935;55.672;37.764;2023-03-15T04:01:33;99494.56;;;5.23;93.31
26192;BME280;13935;55.672;37.764;2023-03-15T04:02:37;99500.91;;;5.27;92.90
26192;BME280;13935;55.672;37.764;2023-03-15T04:03:41;99500.19;;;5.30;93.60
26192;BME280;13935;55.672;37.764;2023-03-15T04:04:47;99500.47;;;5.25;93.45
26192;BME280;13935;55.672;37.764;2023-03-15T04:05:56;99498.53;;;5.25;93.53
26192;BME280;13935;55.672;37.764;2023-03-15T04:06:58;99496.56;;;5.26;93.42
26192;BME280;13935;55.672;37.764;2023-03-15T04:08:08;99512.59;;;5.24;93.44
26192;BME280;13935;55.672;37.764;2023-03-15T04:09:15;99509.34;;;5.18;93.71
26192;BME280;13935;55.672;37.764;2023-03-15T04:10:20;99502.03;;;5.26;93.84
26192;BME280;13935;55.672;37.764;2023-03-15T04:11:30;99504.41;;;5.27;93.48
26192;BME280;13935;55.672;37.764;2023-03-15T04:12:43;99503.78;;;5.34;92.99
26192;BME280;13935;55.672;37.764;2023-03-15T04:13:49;99502.97;;;5.33;93.28
26192;BME280;13935;55.672;37.764;2023-03-15T04:14:52;99514.75;;;5.34;93.22
26192;BME280;13935;55.672;37.764;2023-03-15T04:15:59;99517.78;;;5.29;92.56
26192;BME280;13935;55.672;37.764;2023-03-15T04:17:13;99518.19;;;5.31;92.83
26192;BME280;13935;55.672;37.764;2023-03-15T04:18:17;99508.81;;;5.32;92.56
26192;BME280;13935;55.672;37.764;2023-03-15T04:19:29;99505.09;;;5.40;92.21
26192;BME280;13935;55.672;37.764;2023-03-15T04:20:33;99513.31;;;5.40;91.86
26192;BME280;13935;55.672;37.764;2023-03-15T04:21:36;99509.41;;;5.41;91.33
26192;BME280;13935;55.672;37.764;2023-03-15T04:22:53;99514.59;;;5.46;91.58
26192;BME280;13935;55.672;37.764;2023-03-15T04:24:05;99514.22;;;5.47;91.00
26192;BME280;13935;55.672;37.764;2023-03-15T04:25:28;99503.94;;;5.41;91.27
26192;BME280;13935;55.672;37.764;2023-03-15T04:26:56;99511.78;;;5.42;90.87
26192;BME280;13935;55.672;37.764;2023-03-15T04:28:16;99515.38;;;5.46;90.63
26192;BME280;13935;55.672;37.764;2023-03-15T04:29:28;99513.09;;;5.48;91.05
26192;BME280;13935;55.672;37.764;2023-03-15T04:30:56;99512.72;;;5.50;90.57
26192;BME280;13935;55.672;37.764;2023-03-15T04:32:11;99515.91;;;5.52;90.19
26192;BME280;13935;55.672;37.764;2023-03-15T04:33:41;99510.84;;;5.54;90.19
26192;BME280;13935;55.672;37.764;2023-03-15T04:35:02;99509.63;;;5.51;89.72
26192;BME280;13935;55.672;37.764;2023-03-15T04:36:22;99523.28;;;5.48;89.65
26192;BME280;13935;55.672;37.764;2023-03-15T04:37:49;99519.88;;;5.54;88.96
26192;BME280;13935;55.672;37.764;2023-03-15T04:39:11;99524.34;;;5.62;88.55
26192;BME280;13935;55.672;37.764;2023-03-15T04:40:37;99521.16;;;5.60;88.29
26192;BME280;13935;55.672;37.764;2023-03-15T04:41:54;99520.22;;;5.71;87.73
26192;BME280;13935;55.672;37.764;2023-03-15T04:43:25;99524.13;;;5.70;87.43
26192;BME280;13935;55.672;37.764;2023-03-15T04:44:39;99527.69;;;5.74;86.93
26192;BME280;13935;55.672;37.764;2023-03-15T04:46:03;99521.06;;;5.75;86.81
26192;BME280;13935;55.672;37.764;2023-03-15T04:47:27;99537.63;;;5.79;86.28
26192;BME280;13935;55.672;37.764;2023-03-15T04:48:41;99534.31;;;5.89;86.32
26192;BME280;13935;55.672;37.764;2023-03-15T04:50:02;99538.28;;;5.91;84.79
26192;BME280;13935;55.672;37.764;2023-03-15T04:51:15;99543.28;;;6.08;83.86
26192;BME280;13935;55.672;37.764;2023-03-15T04:52:24;99532.78;;;6.36;82.88
26192;BME280;13935;55.672;37.764;2023-03-15T04:53:47;99543.72;;;6.81;78.99
26192;BME280;13935;55.672;37.764;2023-03-15T04:55:11;99534.47;;;7.51;75.45
26192;BME280;13935;55.672;37.764;2023-03-15T04:56:38;99531.72;;;8.16;69.96
26192;BME280;13935;55.672;37.764;2023-03-15T04:58:17;99535.69;;;8.65;64.89
26192;BME280;13935;55.672;37.764;2023-03-15T04:59:49;99538.59;;;8.86;63.17
26192;BME280;13935;55.672;37.764;2023-03-15T05:01:18;99532.09;;;8.58;62.97
26192;BME280;13935;55.672;37.764;2023-03-15T05:02:40;99534.06;;;7.81;65.87
26192;BME280;13935;55.672;37.764;2023-03-15T05:04:07;99544.28;;;7.81;66.96
26192;BME280;13935;55.672;37.764;2023-03-15T05:05:36;99540.31;;;7.46;68.58
26192;BME280;13935;55.672;37.764;2023-03-15T05:06:51;99536.72;;;7.42;69.11
26192;BME280;13935;55.672;37.764;2023-03-15T05:08:24;99540.34;;;7.49;68.81
26192;BME280;13935;55.672;37.764;2023-03-15T05:09:59;99544.16;;;7.38;69.94
26192;BME280;13935;55.672;37.764;2023-03-15T05:11:13;99556.84;;;7.20;70.77
26192;BME280;13935;55.672;37.764;2023-03-15T05:12:57;99547.06;;;7.22;70.61
26192;BME280;13935;55.672;37.764;2023-03-15T05:14:21;99540.16;;;7.65;70.21
26192;BME280;13935;55.672;37.764;2023-03-15T05:15:59;99550.28;;;7.57;68.27
26192;BME280;13935;55.672;37.764;2023-03-15T05:17:15;99551.63;;;7.70;67.73
26192;BME280;13935;55.672;37.764;2023-03-15T05:18:47;99550.53;;;7.75;67.25
26192;BME280;13935;55.672;37.764;2023-03-15T05:20:09;99560.63;;;7.67;66.31
26192;BME280;13935;55.672;37.764;2023-03-15T05:21:31;99559.91;;;7.70;66.36
26192;BME280;13935;55.672;37.764;2023-03-15T05:22:53;99566.41;;;7.88;65.94
26192;BME280;13935;55.672;37.764;2023-03-15T05:24:20;99565.78;;;8.05;64.51
26192;BME280;13935;55.672;37.764;2023-03-15T05:25:49;99564.00;;;8.59;62.76
26192;BME280;13935;55.672;37.764;2023-03-15T05:27:06;99579.09;;;8.75;60.98
26192;BME280;13935;55.672;37.764;2023-03-15T05:28:40;99587.81;;;8.77;61.53
26192;BME280;13935;55.672;37.764;2023-03-15T05:30:10;99575.13;;;8.69;60.93
26192;BME280;13935;55.672;37.764;2023-03-15T05:31:33;99580.22;;;8.67;60.03
26192;BME280;13935;55.672;37.764;2023-03-15T05:32:58;99579.06;;;8.72;60.19
26192;BME280;13935;55.672;37.764;2023-03-15T05:34:21;99576.16;;;9.01;59.12
26192;BME280;13935;55.672;37.764;2023-03-15T05:35:51;99587.25;;;9.76;57.65
26192;BME280;13935;55.672;37.764;2023-03-15T05:37:28;99588.41;;;9.07;58.14
26192;BME280;13935;55.672;37.764;2023-03-15T05:39:05;99577.44;;;8.64;59.74
26192;BME280;13935;55.672;37.764;2023-03-15T05:40:31;99574.31;;;8.26;60.32
26192;BME280;13935;55.672;37.764;2023-03-15T05:41:50;99584.88;;;8.20;61.43
26192;BME280;13935;55.672;37.764;2023-03-15T05:43:12;99574.22;;;7.86;62.78
26192;BME280;13935;55.672;37.764;2023-03-15T05:44:31;99581.41;;;7.61;64.04
26192;BME280;13935;55.672;37.764;2023-03-15T05:45:49;99576.31;;;7.63;64.89
26192;BME280;13935;55.672;37.764;2023-03-15T05:47:23;99580.00;;;7.45;65.44
26192;BME280;13935;55.672;37.764;2023-03-15T05:48:53;99588.53;;;7.36;66.27
26192;BME280;13935;55.672;37.764;2023-03-15T05:50:17;99593.31;;;7.39;66.24
26192;BME280;13935;55.672;37.764;2023-03-15T05:51:48;99589.28;;;7.33;67.33
26192;BME280;13935;55.672;37.764;2023-03-15T05:53:29;99591.41;;;7.17;67.80
26192;BME280;13935;55.672;37.764;2023-03-15T05:55:10;99598.81;;;7.13;68.57
26192;BME280;13935;55.672;37.764;2023-03-15T05:56:39;99605.97;;;7.18;68.33
26192;BME280;13935;55.672;37.764;2023-03-15T05:58:03;99592.38;;;7.28;68.67
26192;BME280;13935;55.672;37.764;2023-03-15T05:59:12;99600.81;;;7.16;70.35
26192;BME280;13935;55.672;37.764;2023-03-15T06:00:42;99604.81;;;7.22;68.89
26192;BME280;13935;55.672;37.764;2023-03-15T06:01:59;99593.09;;;7.25;69.21
26192;BME280;13935;55.672;37.764;2023-03-15T06:03:09;99604.94;;;7.29;70.22
26192;BME280;13935;55.672;37.764;2023-03-15T06:04:29;99605.81;;;7.33;68.53
26192;BME280;13935;55.672;37.764;2023-03-15T06:05:33;99602.72;;;7.38;68.77
26192;BME280;13935;55.672;37.764;2023-03-15T06:06:38;99608.50;;;7.30;68.96
26192;BME280;13935;55.672;37.764;2023-03-15T06:07:42;99607.28;;;7.27;68.70
26192;BME280;13935;55.672;37.764;2023-03-15T06:08:49;99613.09;;;7.22;69.04
26192;BME280;13935;55.672;37.764;2023-03-15T06:09:53;99616.53;;;7.16;68.89
26192;BME280;13935;55.672;37.764;2023-03-15T06:10:56;99610.97;;;7.12;69.98
26192;BME280;13935;55.672;37.764;2023-03-15T06:12:00;99607.72;;;7.04;69.98
26192;BME280;13935;55.672;37.764;2023-03-15T06:13:03;99612.25;;;7.18;71.11
26192;BME280;13935;55.672;37.764;2023-03-15T06:14:06;99606.47;;;7.27;70.27
26192;BME280;13935;55.672;37.764;2023-03-15T06:15:20;99619.66;;;7.40;70.90
26192;BME280;13935;55.672;37.764;2023-03-15T06:16:25;99606.88;;;7.55;68.86
26192;BME280;13935;55.672;37.764;2023-03-15T06:17:33;99606.56;;;7.60;68.08
26192;BME280;13935;55.672;37.764;2023-03-15T06:18:36;99608.59;;;7.66;67.85
26192;BME280;13935;55.672;37.764;2023-03-15T06:19:38;99618.38;;;7.64;68.46
26192;BME280;13935;55.672;37.764;2023-03-15T06:20:47;99608.81;;;7.54;68.11
26192;BME280;13935;55.672;37.764;2023-03-15T06:21:51;99616.22;;;7.76;68.13
26192;BME280;13935;55.672;37.764;2023-03-15T06:23:07;99612.78;;;7.86;66.48
26192;BME280;13935;55.672;37.764;2023-03-15T06:24:18;99615.66;;;7.96;66.85
26192;BME280;13935;55.672;37.764;2023-03-15T06:25:24;99624.56;;;7.83;66.36